createdAt,value
2023-03-10T00:00:53.336Z,3.10
2023-03-10T00:01:54.914Z,3.97
2023-03-10T00:03:17.408Z,4.00
2023-03-10T00:04:40.338Z,3.40
2023-03-10T00:06:03.424Z,2.85
2023-03-10T00:07:26.130Z,3.15
2023-03-10T00:08:48.865Z,2.60
2023-03-10T00:10:12.011Z,3.60
2023-03-10T00:11:34.624Z,3.35
2023-03-10T00:12:56.289Z,2.78
2023-03-10T00:14:18.955Z,3.78
2023-03-10T00:15:41.475Z,2.90
2023-03-10T00:17:04.241Z,3.30
2023-03-10T00:18:25.848Z,2.85
2023-03-10T00:19:49.727Z,2.40
2023-03-10T00:21:15.125Z,2.10
2023-03-10T00:22:37.768Z,2.00
2023-03-10T00:24:00.396Z,2.00
2023-03-10T00:25:22.885Z,2.58
2023-03-10T00:26:46.461Z,2.10
2023-03-10T00:28:07.996Z,1.90
2023-03-10T00:29:30.519Z,2.53
2023-03-10T00:31:00.906Z,1.50
2023-03-10T00:32:23.506Z,1.63
2023-03-10T00:33:50.551Z,1.40
2023-03-10T00:35:13.691Z,1.48
2023-03-10T00:36:36.638Z,1.38
2023-03-10T00:37:59.184Z,1.40
2023-03-10T00:39:21.942Z,1.27
2023-03-10T00:40:43.472Z,1.30
2023-03-10T00:42:06.311Z,1.40
2023-03-10T00:43:29.444Z,1.25
2023-03-10T00:44:52.110Z,1.25
2023-03-10T00:46:14.188Z,1.20
2023-03-10T00:47:36.777Z,1.40
2023-03-10T00:48:59.903Z,1.42
2023-03-10T00:50:22.798Z,1.20
2023-03-10T00:51:45.312Z,1.10
2023-03-10T00:53:06.884Z,1.30
2023-03-10T00:54:29.393Z,1.20
2023-03-10T00:55:58.485Z,1.10
2023-03-10T00:57:20.980Z,1.20
2023-03-10T00:58:43.476Z,1.83
2023-03-10T01:00:08.158Z,1.35
2023-03-10T01:01:32.746Z,1.10
2023-03-10T01:02:55.477Z,1.10
2023-03-10T01:04:19.094Z,1.15
2023-03-10T01:05:41.991Z,1.25
2023-03-10T01:07:04.547Z,1.20
2023-03-10T01:08:27.124Z,1.30
2023-03-10T01:09:49.659Z,1.15
2023-03-10T01:11:14.103Z,1.33
2023-03-10T01:12:36.604Z,1.38
2023-03-10T01:14:00.419Z,1.15
2023-03-10T01:15:23.229Z,1.25
2023-03-10T01:16:45.842Z,1.20
2023-03-10T01:18:08.581Z,1.17
2023-03-10T01:19:31.186Z,1.52
2023-03-10T01:20:54.093Z,1.23
2023-03-10T01:22:16.645Z,1.30
2023-03-10T01:23:39.239Z,1.25
2023-03-10T01:25:00.801Z,1.40
2023-03-10T01:26:24.300Z,1.55
2023-03-10T01:27:45.852Z,1.30
2023-03-10T01:29:08.502Z,1.20
2023-03-10T01:30:30.202Z,1.40
2023-03-10T01:31:52.810Z,1.20
2023-03-10T01:33:15.549Z,1.35
2023-03-10T01:34:38.111Z,1.60
2023-03-10T01:36:02.468Z,1.30
2023-03-10T01:37:04.131Z,1.33
2023-03-10T01:38:07.568Z,1.40
2023-03-10T01:39:10.095Z,1.45
2023-03-10T01:40:16.194Z,1.60
2023-03-10T01:41:23.497Z,1.75
2023-03-10T01:42:25.323Z,2.00
2023-03-10T01:43:30.105Z,1.60
2023-03-10T01:44:32.681Z,1.60
2023-03-10T01:46:20.144Z,2.22
2023-03-10T01:47:22.697Z,1.70
2023-03-10T01:48:24.704Z,4.55
2023-03-10T01:49:34.383Z,1.80
2023-03-10T01:50:36.050Z,1.65
2023-03-10T01:51:40.804Z,1.50
2023-03-10T01:52:46.822Z,1.70
2023-03-10T01:53:48.406Z,1.42
2023-03-10T01:54:54.353Z,1.90
2023-03-10T01:55:59.229Z,1.48
2023-03-10T01:57:01.783Z,1.60
2023-03-10T01:58:05.422Z,1.60
2023-03-10T01:59:08.781Z,1.90
2023-03-10T02:00:13.237Z,1.70
2023-03-10T02:01:18.778Z,1.60
2023-03-10T02:02:21.441Z,1.60
2023-03-10T02:03:26.932Z,1.67
2023-03-10T02:04:36.056Z,1.50
2023-03-10T02:05:41.595Z,2.00
2023-03-10T02:06:48.485Z,1.70
2023-03-10T02:07:50.739Z,1.30
2023-03-10T02:08:55.896Z,1.30
2023-03-10T02:09:59.963Z,1.30
2023-03-10T02:11:05.299Z,1.38
2023-03-10T02:12:19.210Z,1.67
2023-03-10T02:13:20.756Z,1.65
2023-03-10T02:14:26.908Z,1.17
2023-03-10T02:15:29.142Z,1.30
2023-03-10T02:16:32.003Z,1.33
2023-03-10T02:17:35.542Z,1.20
2023-03-10T02:18:37.269Z,1.58
2023-03-10T02:20:04.260Z,1.23
2023-03-10T02:21:14.100Z,1.20
2023-03-10T02:22:17.949Z,1.25
2023-03-10T02:23:25.031Z,1.30
2023-03-10T02:24:32.493Z,1.50
2023-03-10T02:25:42.449Z,1.38
2023-03-10T02:26:52.092Z,1.45
2023-03-10T02:27:55.393Z,1.60
2023-03-10T02:29:00.524Z,1.10
2023-03-10T02:30:05.394Z,1.30
2023-03-10T02:31:09.864Z,1.10
2023-03-10T02:32:13.721Z,1.30
2023-03-10T02:33:20.587Z,1.27
2023-03-10T02:34:25.296Z,1.55
2023-03-10T02:35:28.040Z,1.10
2023-03-10T02:36:29.853Z,1.33
2023-03-10T02:37:35.267Z,1.27
2023-03-10T02:38:36.812Z,1.00
2023-03-10T02:39:39.356Z,1.60
2023-03-10T02:40:44.901Z,1.10
2023-03-10T02:41:47.800Z,1.30
2023-03-10T02:42:49.699Z,1.50
2023-03-10T02:43:55.828Z,1.33
2023-03-10T02:44:57.482Z,1.10
2023-03-10T02:46:03.761Z,1.38
2023-03-10T02:47:05.865Z,1.25
2023-03-10T02:48:09.836Z,1.00
2023-03-10T02:49:13.827Z,1.60
2023-03-10T02:50:18.253Z,1.25
2023-03-10T02:51:23.191Z,1.30
2023-03-10T02:52:30.368Z,1.08
2023-03-10T02:53:32.131Z,1.15
2023-03-10T02:54:34.776Z,1.40
2023-03-10T02:55:36.442Z,1.20
2023-03-10T02:56:39.606Z,1.85
2023-03-10T02:57:41.140Z,1.40
2023-03-10T02:58:43.898Z,1.50
2023-03-10T02:59:46.783Z,1.65
2023-03-10T03:00:52.863Z,1.20
2023-03-10T03:02:05.402Z,1.42
2023-03-10T03:03:08.248Z,1.30
2023-03-10T03:04:10.833Z,1.17
2023-03-10T03:05:12.435Z,1.50
2023-03-10T03:06:15.015Z,1.33
2023-03-10T03:07:16.663Z,1.73
2023-03-10T03:08:21.014Z,1.30
2023-03-10T03:09:23.576Z,1.33
2023-03-10T03:10:25.774Z,1.60
2023-03-10T03:11:28.717Z,1.20
2023-03-10T03:12:30.339Z,2.15
2023-03-10T03:13:35.278Z,1.20
2023-03-10T03:14:36.821Z,1.40
2023-03-10T03:15:41.002Z,1.30
2023-03-10T03:16:42.735Z,1.45
2023-03-10T03:17:45.253Z,1.40
2023-03-10T03:18:46.844Z,1.50
2023-03-10T03:19:49.447Z,1.50
2023-03-10T03:20:51.139Z,1.80
2023-03-10T03:21:53.651Z,1.67
2023-03-10T03:22:55.274Z,1.50
2023-03-10T03:23:57.797Z,1.73
2023-03-10T03:24:59.627Z,1.30
2023-03-10T03:26:02.228Z,1.40
2023-03-10T03:27:05.416Z,1.20
2023-03-10T03:28:09.621Z,1.75
2023-03-10T03:29:12.011Z,1.23
2023-03-10T03:30:18.324Z,1.20
2023-03-10T03:31:24.319Z,1.75
2023-03-10T03:32:27.152Z,1.35
2023-03-10T03:33:28.719Z,1.20
2023-03-10T03:34:31.250Z,1.13
2023-03-10T03:35:35.168Z,1.40
2023-03-10T03:36:38.085Z,1.70
2023-03-10T03:37:39.774Z,1.33
2023-03-10T03:38:42.631Z,1.38
2023-03-10T03:39:44.458Z,1.30
2023-03-10T03:40:47.057Z,1.55
2023-03-10T03:41:48.975Z,1.45
2023-03-10T03:42:53.629Z,1.10
2023-03-10T03:43:55.152Z,1.20
2023-03-10T03:44:57.720Z,1.35
2023-03-10T03:45:59.359Z,1.23
2023-03-10T03:47:03.666Z,1.40
2023-03-10T03:48:05.300Z,1.25
2023-03-10T03:49:07.844Z,1.20
2023-03-10T03:50:11.857Z,1.10
2023-03-10T03:51:14.489Z,1.20
2023-03-10T03:52:16.317Z,1.23
2023-03-10T03:53:18.883Z,1.42
2023-03-10T03:54:27.587Z,1.55
2023-03-10T03:55:30.241Z,1.20
2023-03-10T03:56:32.786Z,1.50
2023-03-10T03:57:34.450Z,1.17
2023-03-10T03:58:37.092Z,1.30
2023-03-10T03:59:38.643Z,1.35
2023-03-10T04:00:41.169Z,1.65
2023-03-10T04:01:43.638Z,1.40
2023-03-10T04:02:48.824Z,1.55
2023-03-10T04:03:51.278Z,1.40
2023-03-10T04:04:54.504Z,1.50
2023-03-10T04:05:56.355Z,1.55
2023-03-10T04:06:58.905Z,1.50
2023-03-10T04:08:00.428Z,1.40
2023-03-10T04:09:03.684Z,1.35
2023-03-10T04:10:06.992Z,1.20
2023-03-10T04:11:09.688Z,1.40
2023-03-10T04:12:11.719Z,1.48
2023-03-10T04:13:14.254Z,1.50
2023-03-10T04:14:16.724Z,1.40
2023-03-10T04:15:18.569Z,1.33
2023-03-10T04:16:21.212Z,1.50
2023-03-10T04:17:22.823Z,1.33
2023-03-10T04:18:26.934Z,1.90
2023-03-10T04:19:28.848Z,1.38
2023-03-10T04:20:31.347Z,2.10
2023-03-10T04:21:33.377Z,1.45
2023-03-10T04:22:45.689Z,1.90
2023-03-10T04:23:48.299Z,1.50
2023-03-10T04:24:49.870Z,1.33
2023-03-10T04:25:52.363Z,1.63
2023-03-10T04:26:53.943Z,1.73
2023-03-10T04:27:58.017Z,1.90
2023-03-10T04:28:59.864Z,1.38
2023-03-10T04:30:02.666Z,1.50
2023-03-10T04:31:05.823Z,1.60
2023-03-10T04:32:07.625Z,1.92
2023-03-10T04:33:10.955Z,1.95
2023-03-10T04:34:13.972Z,1.65
2023-03-10T04:35:16.768Z,1.73
2023-03-10T04:36:19.404Z,1.67
2023-03-10T04:37:22.361Z,1.77
2023-03-10T04:38:24.852Z,1.50
2023-03-10T04:39:26.500Z,1.70
2023-03-10T04:40:28.961Z,1.80
2023-03-10T04:41:30.583Z,1.70
2023-03-10T04:42:33.916Z,2.10
2023-03-10T04:43:36.421Z,1.90
2023-03-10T04:44:39.256Z,1.67
2023-03-10T04:45:40.879Z,1.42
2023-03-10T04:46:45.936Z,3.00
2023-03-10T04:47:47.551Z,1.35
2023-03-10T04:48:50.069Z,1.33
2023-03-10T04:50:02.968Z,2.40
2023-03-10T04:51:08.261Z,1.80
2023-03-10T04:52:09.868Z,1.60
2023-03-10T04:53:12.372Z,2.03
2023-03-10T04:54:13.904Z,1.50
2023-03-10T04:55:17.161Z,1.73
2023-03-10T04:56:19.493Z,1.45
2023-03-10T04:57:24.428Z,1.50
2023-03-10T04:58:26.219Z,1.40
2023-03-10T04:59:29.407Z,1.50
2023-03-10T05:00:32.054Z,1.58
2023-03-10T05:01:40.491Z,1.60
2023-03-10T05:02:42.151Z,1.70
2023-03-10T05:03:45.215Z,1.40
2023-03-10T05:04:46.964Z,2.17
2023-03-10T05:05:53.912Z,1.50
2023-03-10T05:06:56.789Z,1.38
2023-03-10T05:07:58.345Z,1.60
2023-03-10T05:09:04.473Z,1.70
2023-03-10T05:10:08.219Z,1.60
2023-03-10T05:11:09.999Z,1.90
2023-03-10T05:12:12.468Z,1.48
2023-03-10T05:13:14.114Z,2.22
2023-03-10T05:14:16.911Z,1.63
2023-03-10T05:15:18.780Z,1.75
2023-03-10T05:16:23.001Z,2.88
2023-03-10T05:17:24.832Z,2.15
2023-03-10T05:18:27.380Z,1.83
2023-03-10T05:19:29.209Z,1.85
2023-03-10T05:20:38.539Z,2.40
2023-03-10T05:21:41.468Z,2.35
2023-03-10T05:22:53.963Z,1.73
2023-03-10T05:23:55.561Z,2.05
2023-03-10T05:24:58.728Z,2.00
2023-03-10T05:26:04.194Z,2.65
2023-03-10T05:27:08.203Z,2.17
2023-03-10T05:28:09.808Z,2.13
2023-03-10T05:29:12.388Z,1.73
2023-03-10T05:30:15.860Z,1.95
2023-03-10T05:31:26.475Z,2.03
2023-03-10T05:32:28.262Z,1.75
2023-03-10T05:33:31.556Z,2.67
2023-03-10T05:34:33.161Z,2.20
2023-03-10T05:35:35.738Z,2.70
2023-03-10T05:36:37.291Z,1.95
2023-03-10T05:37:42.994Z,2.40
2023-03-10T05:38:46.167Z,2.10
2023-03-10T05:39:48.722Z,2.60
2023-03-10T05:40:50.287Z,2.10
2023-03-10T05:42:02.909Z,2.00
2023-03-10T05:43:04.475Z,2.30
2023-03-10T05:44:07.197Z,2.38
2023-03-10T05:45:10.782Z,2.80
2023-03-10T05:46:13.444Z,2.00
2023-03-10T05:47:18.966Z,2.95
2023-03-10T05:48:21.461Z,2.30
2023-03-10T05:49:24.625Z,2.53
2023-03-10T05:50:26.283Z,2.00
2023-03-10T05:51:29.063Z,2.05
2023-03-10T05:52:30.658Z,2.97
2023-03-10T05:53:35.703Z,2.08
2023-03-10T05:54:37.371Z,1.70
2023-03-10T05:55:39.900Z,2.38
2023-03-10T05:56:41.602Z,2.30
2023-03-10T05:57:44.540Z,1.90
2023-03-10T05:58:47.421Z,1.77
2023-03-10T05:59:49.905Z,2.40
2023-03-10T06:00:51.924Z,2.20
2023-03-10T06:01:54.454Z,1.90
2023-03-10T06:02:56.113Z,1.65
2023-03-10T06:03:59.011Z,2.35
2023-03-10T06:05:00.580Z,2.17
2023-03-10T06:06:03.931Z,2.42
2023-03-10T06:07:16.454Z,2.10
2023-03-10T06:08:21.033Z,2.20
2023-03-10T06:09:24.900Z,2.30
2023-03-10T06:10:26.532Z,2.05
2023-03-10T06:11:29.144Z,2.20
2023-03-10T06:12:32.298Z,2.40
2023-03-10T06:13:34.953Z,1.80
2023-03-10T06:14:38.001Z,2.50
2023-03-10T06:15:51.620Z,2.25
2023-03-10T06:16:53.928Z,1.77
2023-03-10T06:17:56.800Z,1.92
2023-03-10T06:18:59.701Z,2.30
2023-03-10T06:20:02.686Z,2.10
2023-03-10T06:21:06.877Z,2.30
2023-03-10T06:22:08.567Z,2.30
2023-03-10T06:23:11.158Z,2.65
2023-03-10T06:24:12.761Z,2.30
2023-03-10T06:25:21.469Z,2.25
2023-03-10T06:26:24.320Z,2.00
2023-03-10T06:27:27.182Z,2.30
2023-03-10T06:28:32.824Z,2.05
2023-03-10T06:29:35.583Z,2.05
2023-03-10T06:30:37.447Z,2.78
2023-03-10T06:31:40.241Z,2.20
2023-03-10T06:32:42.806Z,2.38
2023-03-10T06:33:45.797Z,3.25
2023-03-10T06:34:47.541Z,2.33
2023-03-10T06:35:50.226Z,1.90
2023-03-10T06:36:52.769Z,2.20
2023-03-10T06:37:54.577Z,2.20
2023-03-10T06:38:57.226Z,2.22
2023-03-10T06:39:58.926Z,3.45
2023-03-10T06:41:03.181Z,3.25
2023-03-10T06:42:05.068Z,2.30
2023-03-10T06:43:07.619Z,2.40
2023-03-10T06:44:09.168Z,2.05
2023-03-10T06:45:15.968Z,2.17
2023-03-10T06:46:25.446Z,2.67
2023-03-10T06:47:27.103Z,2.50
2023-03-10T06:48:29.680Z,4.18
2023-03-10T06:49:33.415Z,2.67
2023-03-10T06:50:35.287Z,2.55
2023-03-10T06:51:37.889Z,2.47
2023-03-10T06:52:39.658Z,2.75
2023-03-10T06:53:42.568Z,2.38
2023-03-10T06:54:44.435Z,2.70
2023-03-10T06:55:57.093Z,2.78
2023-03-10T06:57:01.890Z,2.13
2023-03-10T06:58:03.634Z,2.10
2023-03-10T06:59:06.137Z,3.17
2023-03-10T07:00:11.699Z,2.75
2023-03-10T07:01:25.916Z,2.38
2023-03-10T07:02:27.612Z,2.80
2023-03-10T07:03:30.399Z,2.05
2023-03-10T07:04:32.031Z,2.80
2023-03-10T07:05:34.674Z,2.67
2023-03-10T07:06:36.563Z,2.42
2023-03-10T07:07:39.436Z,2.60
2023-03-10T07:08:41.001Z,2.83
2023-03-10T07:09:43.574Z,2.25
2023-03-10T07:10:45.227Z,1.85
2023-03-10T07:11:50.140Z,1.70
2023-03-10T07:12:55.296Z,2.30
2023-03-10T07:13:57.944Z,2.60
2023-03-10T07:14:59.711Z,1.95
2023-03-10T07:16:02.495Z,2.67
2023-03-10T07:17:04.320Z,2.20
2023-03-10T07:18:07.014Z,2.15
2023-03-10T07:19:09.639Z,2.50
2023-03-10T07:20:12.658Z,2.72
2023-03-10T07:21:17.988Z,2.67
2023-03-10T07:22:19.523Z,3.08
2023-03-10T07:23:22.754Z,2.00
2023-03-10T07:24:34.607Z,2.75
2023-03-10T07:25:37.871Z,2.60
2023-03-10T07:26:40.490Z,2.05
2023-03-10T07:27:42.105Z,2.33
2023-03-10T07:28:56.032Z,2.20
2023-03-10T07:29:57.634Z,2.55
2023-03-10T07:31:03.768Z,2.10
2023-03-10T07:32:06.752Z,2.20
2023-03-10T07:33:10.601Z,1.95
2023-03-10T07:34:13.237Z,2.00
2023-03-10T07:35:16.520Z,2.50
2023-03-10T07:36:21.129Z,1.65
2023-03-10T07:37:22.787Z,1.92
2023-03-10T07:38:25.328Z,2.30
2023-03-10T07:39:29.716Z,2.15
2023-03-10T07:40:31.426Z,2.30
2023-03-10T07:41:34.009Z,2.83
2023-03-10T07:42:36.538Z,2.70
2023-03-10T07:43:38.149Z,3.63
2023-03-10T07:44:42.083Z,2.20
2023-03-10T07:45:43.618Z,3.25
2023-03-10T07:46:46.303Z,5.07
2023-03-10T07:47:51.220Z,3.13
2023-03-10T07:48:53.829Z,2.50
2023-03-10T07:49:55.439Z,2.00
2023-03-10T07:50:58.653Z,2.60
2023-03-10T07:52:00.206Z,2.80
2023-03-10T07:53:02.726Z,3.75
2023-03-10T07:54:05.023Z,3.30
2023-03-10T07:55:08.162Z,2.58
2023-03-10T07:56:12.032Z,2.47
2023-03-10T07:57:16.030Z,1.90
2023-03-10T07:58:18.337Z,3.00
2023-03-10T07:59:30.860Z,3.47
2023-03-10T08:00:33.826Z,2.60
2023-03-10T08:01:44.836Z,2.15
2023-03-10T08:02:46.467Z,2.50
2023-03-10T08:03:50.031Z,2.28
2023-03-10T08:04:52.414Z,2.00
2023-03-10T08:05:55.785Z,2.33
2023-03-10T08:07:08.958Z,2.83
2023-03-10T08:08:16.590Z,2.58
2023-03-10T08:09:19.107Z,2.05
2023-03-10T08:10:20.871Z,1.83
2023-03-10T08:11:23.438Z,2.15
2023-03-10T08:12:25.448Z,2.33
2023-03-10T08:13:34.696Z,3.35
2023-03-10T08:14:36.601Z,2.15
2023-03-10T08:15:40.709Z,2.10
2023-03-10T08:16:43.332Z,2.67
2023-03-10T08:17:45.857Z,2.80
2023-03-10T08:18:49.573Z,2.13
2023-03-10T08:19:52.216Z,2.25
2023-03-10T08:20:54.696Z,3.08
2023-03-10T08:21:57.556Z,1.80
2023-03-10T08:23:00.448Z,2.70
2023-03-10T08:24:02.956Z,3.30
2023-03-10T08:25:12.448Z,2.10
2023-03-10T08:26:17.108Z,2.92
2023-03-10T08:27:24.215Z,2.45
2023-03-10T08:28:32.520Z,2.58
2023-03-10T08:29:37.795Z,2.40
2023-03-10T08:30:57.277Z,2.30
2023-03-10T08:32:08.785Z,2.30
2023-03-10T08:33:11.540Z,3.35
2023-03-10T08:34:14.757Z,2.05
2023-03-10T08:35:16.827Z,2.15
2023-03-10T08:36:21.927Z,2.65
2023-03-10T08:37:24.525Z,2.20
2023-03-10T08:38:26.224Z,2.55
2023-03-10T08:39:28.877Z,2.20
2023-03-10T08:40:32.438Z,2.50
2023-03-10T08:41:37.530Z,2.83
2023-03-10T08:42:39.396Z,2.35
2023-03-10T08:43:42.639Z,3.42
2023-03-10T08:44:45.284Z,2.35
2023-03-10T08:45:48.276Z,2.10
2023-03-10T08:46:51.244Z,2.28
2023-03-10T08:47:52.805Z,2.03
2023-03-10T08:48:56.570Z,1.95
2023-03-10T08:49:58.156Z,2.58
2023-03-10T08:51:00.672Z,2.42
2023-03-10T08:52:03.676Z,2.25
2023-03-10T08:53:06.381Z,2.60
2023-03-10T08:54:09.598Z,2.05
2023-03-10T08:55:22.265Z,2.85
2023-03-10T08:56:24.522Z,2.53
2023-03-10T08:57:27.220Z,3.58
2023-03-10T08:58:29.658Z,3.28
2023-03-10T08:59:32.226Z,2.10
2023-03-10T09:00:34.086Z,2.65
2023-03-10T09:01:43.476Z,2.30
2023-03-10T09:02:45.187Z,2.40
2023-03-10T09:03:47.733Z,2.28
2023-03-10T09:04:51.155Z,2.13
2023-03-10T09:05:55.313Z,2.45
2023-03-10T09:06:57.971Z,2.67
2023-03-10T09:07:59.760Z,2.25
2023-03-10T09:09:02.684Z,3.03
2023-03-10T09:10:05.199Z,2.88
2023-03-10T09:11:20.114Z,2.60
2023-03-10T09:12:21.818Z,2.80
2023-03-10T09:13:24.807Z,2.50
2023-03-10T09:14:27.393Z,2.40
2023-03-10T09:15:30.080Z,2.70
2023-03-10T09:16:44.438Z,2.42
2023-03-10T09:17:46.067Z,2.42
2023-03-10T09:18:49.388Z,2.25
2023-03-10T09:19:51.989Z,2.22
2023-03-10T09:20:53.545Z,2.95
2023-03-10T09:22:06.252Z,2.80
2023-03-10T09:23:09.042Z,2.35
2023-03-10T09:24:13.111Z,3.00
2023-03-10T09:25:15.825Z,2.45
2023-03-10T09:26:18.392Z,3.38
2023-03-10T09:27:30.188Z,2.50
2023-03-10T09:28:31.839Z,2.67
2023-03-10T09:29:42.996Z,2.47
2023-03-10T09:30:47.955Z,2.78
2023-03-10T09:31:51.998Z,2.85
2023-03-10T09:32:55.687Z,2.20
2023-03-10T09:33:57.619Z,2.80
2023-03-10T09:35:00.348Z,2.60
2023-03-10T09:36:07.385Z,2.95
2023-03-10T09:37:10.602Z,2.95
2023-03-10T09:38:12.926Z,3.70
2023-03-10T09:39:15.764Z,2.63
2023-03-10T09:40:19.338Z,2.88
2023-03-10T09:41:38.284Z,2.65
2023-03-10T09:42:42.946Z,2.70
2023-03-10T09:43:58.835Z,2.38
2023-03-10T09:45:34.490Z,2.55
2023-03-10T09:46:50.438Z,2.30
2023-03-10T09:48:05.326Z,2.75
2023-03-10T09:49:16.711Z,2.47
2023-03-10T09:50:35.157Z,2.20
2023-03-10T09:51:44.344Z,2.20
2023-03-10T09:52:47.747Z,3.25
2023-03-10T09:54:01.695Z,2.10
2023-03-10T09:55:20.811Z,3.80
2023-03-10T09:56:30.113Z,2.20
2023-03-10T09:57:33.392Z,3.10
2023-03-10T09:58:39.325Z,3.03
2023-03-10T09:59:44.292Z,2.40
2023-03-10T10:00:47.047Z,3.03
2023-03-10T10:01:53.499Z,2.20
2023-03-10T10:03:08.660Z,2.00
2023-03-10T10:04:13.865Z,2.30
2023-03-10T10:05:21.609Z,2.40
2023-03-10T10:06:28.766Z,2.60
2023-03-10T10:07:42.209Z,3.00
2023-03-10T10:08:54.851Z,2.78
2023-03-10T10:10:09.304Z,2.70
2023-03-10T10:11:16.180Z,2.25
2023-03-10T10:12:23.564Z,2.30
2023-03-10T10:13:29.787Z,2.60
2023-03-10T10:14:33.167Z,2.13
2023-03-10T10:15:39.400Z,2.55
2023-03-10T10:19:13.628Z,2.40
2023-03-10T10:20:22.906Z,1.90
2023-03-10T10:21:42.384Z,2.85
2023-03-10T10:22:46.067Z,2.50
2023-03-10T10:23:50.467Z,2.20
2023-03-10T10:25:02.454Z,2.80
2023-03-10T10:26:11.848Z,2.22
2023-03-10T10:27:22.373Z,2.70
2023-03-10T10:28:33.988Z,3.20
2023-03-10T10:29:42.221Z,2.30
2023-03-10T10:30:44.487Z,2.58
2023-03-10T10:32:05.276Z,2.80
2023-03-10T10:33:10.296Z,2.30
2023-03-10T10:34:22.755Z,2.17
2023-03-10T10:35:27.517Z,1.80
2023-03-10T10:36:32.449Z,4.32
2023-03-10T10:37:38.761Z,2.08
2023-03-10T10:38:50.328Z,1.80
2023-03-10T10:39:54.819Z,2.08
2023-03-10T10:41:01.833Z,2.05
2023-03-10T10:42:15.372Z,1.95
2023-03-10T10:43:27.977Z,1.95
2023-03-10T10:44:30.588Z,2.20
2023-03-10T10:45:41.202Z,2.33
2023-03-10T10:46:53.407Z,2.08
2023-03-10T10:47:56.537Z,1.73
2023-03-10T10:49:06.146Z,2.00
2023-03-10T10:50:19.768Z,2.00
2023-03-10T10:51:27.071Z,1.30
2023-03-10T10:52:30.776Z,2.20
2023-03-10T10:53:34.344Z,2.40
2023-03-10T10:54:39.990Z,2.92
2023-03-10T10:55:43.075Z,2.17
2023-03-10T10:56:53.271Z,2.25
2023-03-10T10:58:01.289Z,1.60
2023-03-10T10:59:07.666Z,2.40
2023-03-10T11:00:19.374Z,1.70
2023-03-10T11:01:48.034Z,2.40
2023-03-10T11:02:50.836Z,1.60
2023-03-10T11:04:06.650Z,1.50
2023-03-10T11:05:17.545Z,1.80
2023-03-10T11:06:27.089Z,1.65
2023-03-10T11:07:28.728Z,1.92
2023-03-10T11:08:37.631Z,2.00
2023-03-10T11:09:40.497Z,2.20
2023-03-10T11:11:00.153Z,2.00
2023-03-10T11:12:19.961Z,1.45
2023-03-10T11:13:29.265Z,1.45
2023-03-10T11:14:45.076Z,1.67
2023-03-10T11:15:56.693Z,1.38
2023-03-10T11:17:04.177Z,1.70
2023-03-10T11:18:15.746Z,1.60
2023-03-10T11:19:28.061Z,1.33
2023-03-10T11:20:41.862Z,1.25
2023-03-10T11:22:00.039Z,1.40
2023-03-10T11:23:11.951Z,1.33
2023-03-10T11:24:20.064Z,1.42
2023-03-10T11:25:30.788Z,1.52
2023-03-10T11:26:45.710Z,1.63
2023-03-10T11:28:10.208Z,1.30
2023-03-10T11:29:26.350Z,1.95
2023-03-10T11:30:33.241Z,1.73
2023-03-10T11:31:41.848Z,1.63
2023-03-10T11:33:02.420Z,1.40
2023-03-10T11:34:20.651Z,1.60
2023-03-10T11:35:43.760Z,1.35
2023-03-10T11:36:56.585Z,1.38
2023-03-10T11:38:11.398Z,1.40
2023-03-10T11:39:22.543Z,1.80
2023-03-10T11:40:31.696Z,1.80
2023-03-10T11:41:41.094Z,1.40
2023-03-10T11:42:54.245Z,1.88
2023-03-10T11:44:01.180Z,1.60
2023-03-10T11:45:14.540Z,1.23
2023-03-10T11:46:25.160Z,1.67
2023-03-10T11:47:42.054Z,1.30
2023-03-10T11:48:57.610Z,1.10
2023-03-10T11:50:07.508Z,1.17
2023-03-10T11:51:19.258Z,1.50
2023-03-10T11:52:23.284Z,1.55
2023-03-10T11:53:35.155Z,1.65
2023-03-10T11:54:42.427Z,1.35
2023-03-10T11:55:44.494Z,3.45
2023-03-10T11:56:49.487Z,1.60
2023-03-10T11:57:57.820Z,2.10
2023-03-10T11:59:08.222Z,1.73
2023-03-10T12:00:21.339Z,1.45
2023-03-10T12:01:33.122Z,2.38
2023-03-10T12:02:43.781Z,1.58
2023-03-10T12:03:53.360Z,1.85
2023-03-10T12:05:02.989Z,2.22
2023-03-10T12:06:08.948Z,1.85
2023-03-10T12:07:18.340Z,1.95
2023-03-10T12:08:34.114Z,1.85
2023-03-10T12:09:42.024Z,1.23
2023-03-10T12:10:43.956Z,1.63
2023-03-10T12:11:47.862Z,1.80
2023-03-10T12:12:51.586Z,2.15
2023-03-10T12:13:59.260Z,1.48
2023-03-10T12:15:05.754Z,1.45
2023-03-10T12:16:20.734Z,1.60
2023-03-10T12:17:23.950Z,1.67
2023-03-10T12:18:27.051Z,1.90
2023-03-10T12:19:32.064Z,1.80
2023-03-10T12:20:34.655Z,1.90
2023-03-10T12:21:37.212Z,1.55
2023-03-10T12:22:41.153Z,2.00
2023-03-10T12:23:45.257Z,1.92
2023-03-10T12:24:48.884Z,1.70
2023-03-10T12:25:50.835Z,2.03
2023-03-10T12:27:03.371Z,1.77
2023-03-10T12:28:24.165Z,1.50
2023-03-10T12:29:39.398Z,1.30
2023-03-10T12:30:45.746Z,2.20
2023-03-10T12:31:51.209Z,1.40
2023-03-10T12:32:53.977Z,1.50
2023-03-10T12:34:14.546Z,1.33
2023-03-10T12:35:47.620Z,1.40
2023-03-10T12:36:53.293Z,1.75
2023-03-10T12:38:30.287Z,1.33
2023-03-10T12:39:38.440Z,1.58
2023-03-10T12:40:51.263Z,1.33
2023-03-10T12:41:54.649Z,1.15
2023-03-10T12:42:56.222Z,1.10
2023-03-10T12:44:00.555Z,1.55
2023-03-10T12:45:24.174Z,1.23
2023-03-10T12:46:38.304Z,1.15
2023-03-10T12:47:59.218Z,1.25
2023-03-10T12:49:14.296Z,1.35
2023-03-10T12:50:27.814Z,1.40
2023-03-10T12:51:36.079Z,1.48
2023-03-10T12:52:49.863Z,1.90
2023-03-10T12:54:01.465Z,1.30
2023-03-10T12:55:15.331Z,1.20
2023-03-10T12:56:39.775Z,2.10
2023-03-10T12:57:48.556Z,1.33
2023-03-10T12:58:58.432Z,1.10
2023-03-10T13:00:06.415Z,1.10
2023-03-10T13:01:18.355Z,1.10
2023-03-10T13:02:29.214Z,1.20
2023-03-10T13:03:47.184Z,1.10
2023-03-10T13:05:02.639Z,1.30
2023-03-10T13:06:08.348Z,1.10
2023-03-10T13:07:15.373Z,1.23
2023-03-10T13:08:25.320Z,1.25
2023-03-10T13:09:31.866Z,1.27
2023-03-10T13:10:36.525Z,1.02
2023-03-10T13:11:41.203Z,0.80
2023-03-10T13:12:48.798Z,0.98
2023-03-10T13:13:52.705Z,1.10
2023-03-10T13:14:58.050Z,0.90
2023-03-10T13:16:19.592Z,1.15
2023-03-10T13:17:22.997Z,1.10
2023-03-10T13:18:26.054Z,1.30
2023-03-10T13:19:30.462Z,0.90
2023-03-10T13:20:37.468Z,1.00
2023-03-10T13:21:40.787Z,1.00
2023-03-10T13:22:53.134Z,1.00
2023-03-10T13:23:56.524Z,1.10
2023-03-10T13:25:06.677Z,0.90
2023-03-10T13:26:16.653Z,1.00
2023-03-10T13:27:19.855Z,1.00
2023-03-10T13:28:22.632Z,1.40
2023-03-10T13:29:25.188Z,1.55
2023-03-10T13:30:28.483Z,1.50
2023-03-10T13:31:33.007Z,1.40
2023-03-10T13:32:34.872Z,1.30
2023-03-10T13:33:50.158Z,1.48
2023-03-10T13:34:56.380Z,1.27
2023-03-10T13:35:58.948Z,1.15
2023-03-10T13:37:05.958Z,1.30
2023-03-10T13:38:13.150Z,1.40
2023-03-10T13:39:18.051Z,1.60
2023-03-10T13:40:22.060Z,1.45
2023-03-10T13:41:25.432Z,1.85
2023-03-10T13:42:42.968Z,1.63
2023-03-10T13:43:48.432Z,1.38
2023-03-10T13:44:51.812Z,1.70
2023-03-10T13:45:55.375Z,1.35
2023-03-10T13:47:00.556Z,1.48
2023-03-10T13:48:05.067Z,1.40
2023-03-10T13:49:09.481Z,1.35
2023-03-10T13:50:16.637Z,1.60
2023-03-10T13:51:22.115Z,1.25
2023-03-10T13:52:26.444Z,1.60
2023-03-10T13:53:28.088Z,1.85
2023-03-10T13:54:32.588Z,1.40
2023-03-10T13:55:40.656Z,1.50
2023-03-10T13:56:45.002Z,1.30
2023-03-10T13:57:49.299Z,1.20
2023-03-10T13:58:56.995Z,1.20
2023-03-10T14:00:00.973Z,1.20
2023-03-10T14:01:03.189Z,1.30
2023-03-10T14:02:14.272Z,1.08
2023-03-10T14:03:17.878Z,1.00
2023-03-10T14:04:40.251Z,1.00
2023-03-10T14:05:45.548Z,0.90
2023-03-10T14:07:07.597Z,0.88
2023-03-10T14:08:19.113Z,1.15
2023-03-10T14:09:23.507Z,1.10
2023-03-10T14:10:26.134Z,1.10
2023-03-10T14:11:35.577Z,1.38
2023-03-10T14:12:39.953Z,1.00
2023-03-10T14:13:43.988Z,1.30
2023-03-10T14:14:46.525Z,1.00
2023-03-10T14:15:53.207Z,1.42
2023-03-10T14:16:57.464Z,1.33
2023-03-10T14:18:20.481Z,1.40
2023-03-10T14:19:49.883Z,1.58
2023-03-10T14:20:51.481Z,1.15
2023-03-10T14:22:01.674Z,1.25
2023-03-10T14:23:26.303Z,1.20
2023-03-10T14:24:28.088Z,1.38
2023-03-10T14:25:30.717Z,1.30
2023-03-10T14:26:34.053Z,1.40
2023-03-10T14:27:39.145Z,1.20
2023-03-10T14:28:41.694Z,1.40
2023-03-10T14:29:49.988Z,1.48
2023-03-10T14:30:51.910Z,1.30
2023-03-10T14:31:54.465Z,1.80
2023-03-10T14:32:59.875Z,1.40
2023-03-10T14:34:01.483Z,1.40
2023-03-10T14:35:09.768Z,1.40
2023-03-10T14:36:12.193Z,1.50
2023-03-10T14:37:15.021Z,1.40
2023-03-10T14:38:17.169Z,1.20
2023-03-10T14:39:20.256Z,2.22
2023-03-10T14:40:25.336Z,1.92
2023-03-10T14:41:26.981Z,1.20
2023-03-10T14:42:31.226Z,1.40
2023-03-10T14:43:33.283Z,1.60
2023-03-10T14:44:35.914Z,1.60
2023-03-10T14:45:41.179Z,1.38
2023-03-10T14:46:46.064Z,1.85
2023-03-10T14:47:47.914Z,1.75
2023-03-10T14:48:50.939Z,1.50
2023-03-10T14:49:52.541Z,1.80
2023-03-10T14:50:56.844Z,1.50
2023-03-10T14:51:58.630Z,1.77
2023-03-10T14:53:01.112Z,1.52
2023-03-10T14:54:02.905Z,1.50
2023-03-10T14:55:07.887Z,1.70
2023-03-10T14:56:14.528Z,1.55
2023-03-10T14:57:20.814Z,1.80